Time;durP1;ratioP1;P1;durP2;ratioP2;P2;SDS_P1;SDS_P2;PMS_P1;PMS_P2;Temp;Humidity;BMP_temperature;BMP_pressure;BME280_temperature;BME280_humidity;BME280_pressure;Samples;Min_cycle;Max_cycle;Signal;HPM_P1;HPM_P2
2021/12/25 00:01:25;;;;;;;1.40;1.30;;;9.70;99.90;;;;;;5036294;28;20283;-64
2021/12/25 00:03:54;;;;;;;1.30;1.30;;;9.70;99.90;;;;;;5035558;28;20204;-64
2021/12/25 00:06:24;;;;;;;1.20;1.20;;;9.70;99.90;;;;;;5035181;28;20247;-64
2021/12/25 00:08:51;;;;;;;1.17;1.17;;;9.70;99.90;;;;;;5036058;28;20208;-64
2021/12/25 00:11:18;;;;;;;1.10;1.10;;;9.70;99.90;;;;;;5035106;28;20302;-63
2021/12/25 00:13:45;;;;;;;1.13;1.13;;;9.70;99.90;;;;;;5035418;28;20574;-65
2021/12/25 00:16:12;;;;;;;1.20;1.20;;;9.80;99.90;;;;;;5034997;28;20698;-64
2021/12/25 00:18:39;;;;;;;1.13;1.13;;;9.80;99.90;;;;;;5034967;28;20228;-65
2021/12/25 00:21:08;;;;;;;1.00;1.00;;;9.80;99.90;;;;;;5051047;22;20221;-68
2021/12/25 00:23:36;;;;;;;1.30;1.30;;;10.00;99.90;;;;;;5046383;28;20204;-69
2021/12/25 00:26:08;;;;;;;1.00;1.00;;;9.80;99.90;;;;;;5044624;28;20228;-66
2021/12/25 00:28:50;;;;;;;1.10;1.10;;;9.80;99.90;;;;;;5044837;28;20204;-66
2021/12/25 00:31:43;;;;;;;1.20;1.20;;;9.80;99.90;;;;;;5031358;28;20228;-65
2021/12/25 00:34:10;;;;;;;1.07;1.07;;;9.80;99.90;;;;;;5032550;28;20205;-67
2021/12/25 00:36:38;;;;;;;1.10;1.10;;;9.90;99.90;;;;;;5030388;28;20201;-66
2021/12/25 00:39:06;;;;;;;1.00;1.00;;;9.90;99.90;;;;;;5032998;28;20204;-67
2021/12/25 00:41:33;;;;;;;1.10;1.10;;;9.90;99.90;;;;;;5031277;28;20248;-67
2021/12/25 00:44:00;;;;;;;1.00;1.00;;;9.80;99.90;;;;;;5028703;28;20202;-66
2021/12/25 00:46:27;;;;;;;1.00;1.00;;;9.90;99.90;;;;;;5015666;28;20212;-66
2021/12/25 00:48:54;;;;;;;1.10;1.10;;;10.00;99.90;;;;;;5014697;28;20248;-67
2021/12/25 00:51:21;;;;;;;1.00;1.00;;;9.80;99.90;;;;;;5016144;28;20321;-67
2021/12/25 00:53:47;;;;;;;1.10;1.10;;;9.80;99.90;;;;;;5015939;28;20679;-67
2021/12/25 00:56:16;;;;;;;1.00;1.00;;;9.90;99.90;;;;;;5015160;28;20236;-66
2021/12/25 00:58:43;;;;;;;1.00;1.00;;;9.90;99.90;;;;;;5015475;28;20205;-65
2021/12/25 01:01:10;;;;;;;0.90;0.90;;;10.10;99.90;;;;;;5015184;28;20225;-65
2021/12/25 01:03:37;;;;;;;1.10;1.10;;;9.90;99.90;;;;;;5015629;28;20236;-66
2021/12/25 01:06:04;;;;;;;1.03;1.03;;;9.90;99.90;;;;;;5014805;28;20625;-64
2021/12/25 01:08:31;;;;;;;1.00;1.00;;;9.90;99.90;;;;;;5014510;28;20292;-66
2021/12/25 01:10:58;;;;;;;1.37;1.00;;;9.80;99.90;;;;;;5014576;28;20229;-65
2021/12/25 01:13:30;;;;;;;1.00;1.00;;;9.80;99.90;;;;;;5014681;28;20201;-67
2021/12/25 01:16:12;;;;;;;1.00;1.00;;;9.90;99.90;;;;;;5014194;28;20205;-66
2021/12/25 01:19:14;;;;;;;1.57;1.20;;;9.90;99.90;;;;;;5014816;28;20189;-67
2021/12/25 01:21:56;;;;;;;1.00;1.00;;;9.90;99.90;;;;;;5014712;28;20225;-65
2021/12/25 01:24:41;;;;;;;1.00;1.00;;;9.90;99.90;;;;;;5014240;28;20558;-66
2021/12/25 01:30:00;;;;;;;1.03;1.03;;;9.90;99.90;;;;;;5014585;28;20213;-66
2021/12/25 01:32:58;;;;;;;1.03;1.03;;;9.90;99.90;;;;;;5014081;28;20231;-65
2021/12/25 01:35:41;;;;;;;1.10;1.10;;;9.90;99.90;;;;;;5013938;28;20196;-65
2021/12/25 01:38:23;;;;;;;1.20;1.20;;;9.90;99.90;;;;;;5014061;28;20185;-66
2021/12/25 01:40:58;;;;;;;1.00;1.00;;;9.90;99.90;;;;;;5014117;28;20225;-67
2021/12/25 01:48:55;;;;;;;0.90;0.90;;;9.90;99.90;;;;;;5013673;28;20189;-66
2021/12/25 01:51:22;;;;;;;0.80;0.80;;;9.90;99.90;;;;;;5013675;28;20239;-66
2021/12/25 01:53:49;;;;;;;1.00;1.00;;;9.90;99.90;;;;;;5013259;28;20558;-68
2021/12/25 01:56:16;;;;;;;0.90;0.90;;;9.90;99.90;;;;;;5013605;28;20205;-66
2021/12/25 01:58:43;;;;;;;0.90;0.90;;;9.90;99.90;;;;;;5013698;28;20220;-67
2021/12/25 02:01:12;;;;;;;1.00;1.00;;;9.90;99.90;;;;;;5013502;28;20787;-66
2021/12/25 02:03:41;;;;;;;1.00;1.00;;;9.90;99.90;;;;;;5014529;28;20244;-65
2021/12/25 02:06:09;;;;;;;1.00;1.00;;;9.90;99.90;;;;;;5013862;28;20267;-67
2021/12/25 02:08:37;;;;;;;0.90;0.90;;;10.00;99.90;;;;;;5013439;28;20205;-65
2021/12/25 02:11:05;;;;;;;1.00;1.00;;;9.90;99.90;;;;;;5013577;28;20317;-65
2021/12/25 02:13:32;;;;;;;0.90;0.90;;;9.90;99.90;;;;;;5013648;28;20205;-65
2021/12/25 02:16:04;;;;;;;0.90;0.90;;;9.90;99.90;;;;;;5012906;28;20325;-67
2021/12/25 02:18:53;;;;;;;0.90;0.90;;;9.80;99.90;;;;;;5013302;28;20200;-66
2021/12/25 02:21:25;;;;;;;0.90;0.90;;;9.80;99.90;;;;;;5012841;28;20612;-65
2021/12/25 02:23:55;;;;;;;0.90;0.90;;;9.80;99.90;;;;;;5013277;28;20209;-67
2021/12/25 02:26:24;;;;;;;0.90;0.90;;;9.80;99.90;;;;;;5012689;28;20205;-66
2021/12/25 02:28:51;;;;;;;0.90;0.90;;;9.80;99.90;;;;;;5012811;28;20217;-67
2021/12/25 02:31:18;;;;;;;0.93;0.93;;;9.80;99.90;;;;;;5013027;28;20697;-66
2021/12/25 02:33:46;;;;;;;0.90;0.90;;;9.80;99.90;;;;;;5013278;28;20288;-64
2021/12/25 02:36:14;;;;;;;0.90;0.90;;;9.80;99.90;;;;;;5012632;28;20578;-66
2021/12/25 02:38:43;;;;;;;0.90;0.90;;;9.80;99.90;;;;;;5012886;28;20237;-66
2021/12/25 02:41:10;;;;;;;0.80;0.80;;;9.90;99.90;;;;;;5012778;28;20308;-68
2021/12/25 02:43:38;;;;;;;0.80;0.80;;;9.90;99.90;;;;;;5013519;28;20202;-66
2021/12/25 02:46:06;;;;;;;1.00;1.00;;;9.90;99.90;;;;;;5012724;28;20206;-66
2021/12/25 02:48:36;;;;;;;1.00;1.00;;;9.90;99.90;;;;;;5024180;28;20205;-67
2021/12/25 02:51:04;;;;;;;0.80;0.80;;;10.00;99.90;;;;;;5018063;28;20225;-66
2021/12/25 02:53:31;;;;;;;0.80;0.80;;;10.00;99.90;;;;;;5014159;28;20251;-67
2021/12/25 02:55:59;;;;;;;0.80;0.80;;;10.10;99.90;;;;;;5012910;28;20288;-67
2021/12/25 02:58:26;;;;;;;0.77;0.77;;;10.00;99.90;;;;;;5012638;28;20212;-66
2021/12/25 03:00:57;;;;;;;0.80;0.80;;;10.10;99.90;;;;;;5012875;28;20228;-65
2021/12/25 03:03:24;;;;;;;0.90;0.90;;;10.10;99.90;;;;;;5012944;28;20204;-66
2021/12/25 03:05:52;;;;;;;0.90;0.90;;;10.00;99.90;;;;;;5012282;28;20299;-67
2021/12/25 03:08:20;;;;;;;0.80;0.80;;;9.90;99.90;;;;;;5012251;28;20216;-67
2021/12/25 03:10:47;;;;;;;0.83;0.83;;;9.90;99.90;;;;;;5012619;28;20229;-66
2021/12/25 03:13:32;;;;;;;1.10;1.10;;;10.00;99.90;;;;;;5011414;28;20216;-66
2021/12/25 03:16:00;;;;;;;0.70;0.70;;;10.00;99.90;;;;;;5013486;28;20190;-67
2021/12/25 03:18:29;;;;;;;0.97;0.97;;;10.10;99.90;;;;;;5013301;28;20201;-67
2021/12/25 03:20:58;;;;;;;0.83;0.83;;;10.10;99.90;;;;;;5012362;28;20663;-66
2021/12/25 03:23:27;;;;;;;0.90;0.90;;;10.10;99.90;;;;;;5012603;28;20209;-66
2021/12/25 03:25:57;;;;;;;1.00;1.00;;;10.10;99.90;;;;;;5012244;28;20304;-65
2021/12/25 03:28:29;;;;;;;0.80;0.80;;;9.90;99.90;;;;;;5012061;28;20328;-65
2021/12/25 03:30:59;;;;;;;0.80;0.80;;;9.80;99.90;;;;;;5012174;28;20225;-65
2021/12/25 03:33:27;;;;;;;0.80;0.80;;;9.80;99.90;;;;;;5012519;28;20212;-67
2021/12/25 03:35:54;;;;;;;0.90;0.90;;;9.80;99.90;;;;;;5012178;28;20215;-68
2021/12/25 03:38:21;;;;;;;0.73;0.73;;;9.70;99.90;;;;;;5011820;28;20682;-65
2021/12/25 03:40:49;;;;;;;0.90;0.90;;;9.70;99.90;;;;;;5011885;28;20221;-67
2021/12/25 03:43:16;;;;;;;0.87;0.87;;;9.70;99.90;;;;;;5012006;28;20244;-66
2021/12/25 03:45:45;;;;;;;0.77;0.77;;;9.70;99.90;;;;;;5012468;28;20292;-67
2021/12/25 03:48:16;;;;;;;0.90;0.90;;;9.70;99.90;;;;;;5012119;28;20300;-66
2021/12/25 03:57:35;;;;;;;0.90;0.90;;;9.70;99.90;;;;;;5009993;28;20291;-67
2021/12/25 03:59:13;;;;;;;1.07;1.07;;;9.80;99.90;;;;;;4992151;28;20212;-64
2021/12/25 04:01:47;;;;;;;1.00;1.00;;;9.80;99.90;;;;;;4992487;28;20260;-66
2021/12/25 04:04:20;;;;;;;1.00;1.00;;;9.80;99.90;;;;;;4992225;28;20229;-65
2021/12/25 04:06:54;;;;;;;0.93;0.93;;;9.80;99.90;;;;;;4992970;28;20225;-67
2021/12/25 04:09:25;;;;;;;0.90;0.90;;;9.70;99.90;;;;;;4992757;28;20191;-65
2021/12/25 04:11:52;;;;;;;1.00;1.00;;;9.80;99.90;;;;;;4992754;28;20706;-67
2021/12/25 04:14:20;;;;;;;0.80;0.80;;;9.80;99.90;;;;;;4991780;28;20278;-66
2021/12/25 04:16:48;;;;;;;0.90;0.90;;;9.80;99.90;;;;;;4992293;28;20301;-67
2021/12/25 04:19:15;;;;;;;0.83;0.83;;;9.80;99.90;;;;;;4992206;28;20212;-66
2021/12/25 04:21:50;;;;;;;0.80;0.80;;;9.70;99.90;;;;;;4991900;28;20265;-66
2021/12/25 04:24:17;;;;;;;1.10;1.10;;;9.70;99.90;;;;;;4993937;28;20671;-66
2021/12/25 04:26:46;;;;;;;0.87;0.80;;;9.70;99.90;;;;;;4995402;28;20260;-66
2021/12/25 04:29:32;;;;;;;1.00;1.00;;;9.70;99.90;;;;;;4995847;28;20201;-69
2021/12/25 04:32:28;;;;;;;0.90;0.90;;;9.70;99.90;;;;;;4995798;28;20635;-65
2021/12/25 04:49:18;;;;;;;1.00;1.00;;;9.90;99.90;;;;;;4996007;28;20249;-67
2021/12/25 05:02:53;;;;;;;1.00;1.00;;;10.00;99.90;;;;;;4995799;28;20205;-67
2021/12/25 05:05:22;;;;;;;1.23;1.23;;;9.90;99.90;;;;;;4995215;28;20640;-66
2021/12/25 05:07:49;;;;;;;1.20;1.20;;;9.90;99.90;;;;;;4994806;28;20205;-66
2021/12/25 05:10:16;;;;;;;1.00;1.00;;;9.90;99.90;;;;;;5000356;28;20269;-68
2021/12/25 05:12:43;;;;;;;1.00;1.00;;;9.90;99.90;;;;;;5002554;28;20316;-68
2021/12/25 05:15:10;;;;;;;1.00;1.00;;;9.90;99.90;;;;;;4998904;28;20698;-67
2021/12/25 05:17:37;;;;;;;1.10;1.10;;;9.90;99.90;;;;;;5009694;28;20218;-66
2021/12/25 05:20:05;;;;;;;1.00;1.00;;;9.90;99.90;;;;;;5005811;28;20673;-67
2021/12/25 05:22:34;;;;;;;1.00;1.00;;;9.90;99.90;;;;;;5010190;28;20214;-65
2021/12/25 05:25:00;;;;;;;1.17;1.07;;;9.90;99.90;;;;;;5010246;28;20209;-68
2021/12/25 05:27:27;;;;;;;1.00;1.00;;;9.90;99.90;;;;;;5010644;28;20229;-67
2021/12/25 05:29:54;;;;;;;1.00;1.00;;;9.90;99.90;;;;;;5010944;28;20218;-66
2021/12/25 05:32:21;;;;;;;0.70;0.70;;;9.90;99.90;;;;;;5003743;28;20321;-67
2021/12/25 05:34:48;;;;;;;1.33;1.27;;;9.90;99.90;;;;;;4995034;28;20202;-66
2021/12/25 05:37:15;;;;;;;1.00;1.00;;;10.00;99.90;;;;;;4994064;28;20588;-68
2021/12/25 05:39:50;;;;;;;0.93;0.93;;;10.00;99.90;;;;;;4994780;28;20212;-66
2021/12/25 05:42:18;;;;;;;0.90;0.90;;;10.00;99.90;;;;;;4994737;28;20785;-65
2021/12/25 05:44:45;;;;;;;0.90;0.90;;;9.90;99.90;;;;;;4999209;28;20202;-66
2021/12/25 05:47:12;;;;;;;0.97;0.97;;;9.90;99.90;;;;;;5011054;28;20209;-68
2021/12/25 05:49:38;;;;;;;0.93;0.93;;;9.90;99.90;;;;;;5013088;28;20241;-66
2021/12/25 05:52:06;;;;;;;0.90;0.90;;;10.00;99.90;;;;;;5011406;28;20273;-67
2021/12/25 05:54:34;;;;;;;0.90;0.90;;;10.00;99.90;;;;;;4997468;28;20208;-66
2021/12/25 05:57:02;;;;;;;0.90;0.90;;;9.90;99.90;;;;;;4994473;28;20293;-67
2021/12/25 05:59:29;;;;;;;1.00;1.00;;;9.90;99.90;;;;;;4994055;28;20210;-65
2021/12/25 06:01:56;;;;;;;0.73;0.73;;;10.00;99.90;;;;;;4994686;28;20260;-66
2021/12/25 06:04:23;;;;;;;1.00;1.00;;;10.00;99.90;;;;;;4994115;28;20235;-68
2021/12/25 06:06:50;;;;;;;0.90;0.90;;;10.00;99.90;;;;;;4993605;28;20301;-65
2021/12/25 06:09:18;;;;;;;1.10;1.10;;;10.00;99.90;;;;;;4994075;28;20210;-66
2021/12/25 06:11:45;;;;;;;1.00;1.00;;;10.10;99.90;;;;;;4994059;28;20246;-67
2021/12/25 06:14:19;;;;;;;1.10;1.10;;;10.10;99.90;;;;;;4993931;28;20230;-68
2021/12/25 06:16:47;;;;;;;1.10;1.10;;;10.10;99.90;;;;;;4993295;28;20209;-67
2021/12/25 06:19:15;;;;;;;1.00;1.00;;;10.10;99.90;;;;;;4993716;28;20210;-67
2021/12/25 06:21:42;;;;;;;1.10;1.00;;;10.10;99.90;;;;;;5021815;22;20739;-64
2021/12/25 06:24:09;;;;;;;0.90;0.90;;;10.20;99.90;;;;;;5013361;28;20319;-64
2021/12/25 06:26:38;;;;;;;0.97;0.97;;;10.20;99.90;;;;;;5012434;28;20241;-64
2021/12/25 06:29:05;;;;;;;1.00;1.00;;;10.20;99.90;;;;;;4993182;28;20209;-64
2021/12/25 06:31:34;;;;;;;1.07;1.07;;;10.30;99.90;;;;;;4988212;28;20700;-63
2021/12/25 06:34:01;;;;;;;1.20;1.20;;;10.30;99.90;;;;;;4974224;28;20619;-65
2021/12/25 06:36:28;;;;;;;1.10;1.10;;;10.40;99.90;;;;;;4974369;28;20238;-63
2021/12/25 06:38:54;;;;;;;1.20;1.20;;;10.40;99.90;;;;;;4973792;28;20246;-63
2021/12/25 06:41:21;;;;;;;1.10;1.10;;;10.50;99.90;;;;;;4974343;28;20309;-65
2021/12/25 06:43:48;;;;;;;1.10;1.10;;;10.40;99.90;;;;;;4974778;28;20226;-62
2021/12/25 06:46:15;;;;;;;1.37;1.33;;;10.50;99.90;;;;;;4976656;28;20292;-64
2021/12/25 06:48:43;;;;;;;1.20;1.20;;;10.50;99.90;;;;;;4978139;28;20269;-64
2021/12/25 06:51:10;;;;;;;1.20;1.20;;;10.50;99.90;;;;;;4978518;28;20219;-64
2021/12/25 06:53:37;;;;;;;1.20;1.20;;;10.50;99.90;;;;;;4979659;28;20292;-64
2021/12/25 06:56:05;;;;;;;1.23;1.20;;;10.60;99.90;;;;;;4978184;28;20214;-63
2021/12/25 06:58:32;;;;;;;1.30;1.30;;;10.70;99.90;;;;;;4977037;28;20297;-64
2021/12/25 07:00:59;;;;;;;1.20;1.20;;;10.70;99.90;;;;;;4976478;28;20677;-64
2021/12/25 07:03:26;;;;;;;1.30;1.30;;;10.70;99.90;;;;;;4977188;28;20242;-64
2021/12/25 07:05:55;;;;;;;1.20;1.20;;;10.70;99.90;;;;;;4977783;28;20206;-64
2021/12/25 07:08:21;;;;;;;1.10;1.10;;;10.70;99.90;;;;;;4977395;28;20293;-62
2021/12/25 07:10:49;;;;;;;1.17;1.17;;;10.70;99.90;;;;;;4977633;28;20230;-63
2021/12/25 07:13:18;;;;;;;1.17;1.17;;;10.80;99.90;;;;;;4978009;28;20285;-63
2021/12/25 07:15:45;;;;;;;1.30;1.30;;;10.80;99.90;;;;;;4978713;28;20225;-63
2021/12/25 07:18:13;;;;;;;1.30;1.30;;;10.70;99.90;;;;;;4974388;28;20728;-63
2021/12/25 07:20:40;;;;;;;1.20;1.20;;;10.80;99.90;;;;;;4974440;28;20297;-63
2021/12/25 07:23:08;;;;;;;1.30;1.30;;;10.80;99.90;;;;;;4973199;28;20664;-63
2021/12/25 07:25:35;;;;;;;1.40;1.40;;;11.00;99.90;;;;;;4972976;28;20213;-65
2021/12/25 07:28:03;;;;;;;1.23;1.23;;;10.80;99.90;;;;;;4973082;28;20206;-63
2021/12/25 07:30:31;;;;;;;1.17;1.17;;;10.80;99.90;;;;;;4973678;28;20644;-64
2021/12/25 07:32:59;;;;;;;1.30;1.30;;;10.90;99.90;;;;;;4972875;28;20325;-65
2021/12/25 07:35:27;;;;;;;1.20;1.20;;;10.90;99.90;;;;;;4976588;28;20249;-63
2021/12/25 07:37:54;;;;;;;1.30;1.30;;;10.90;99.90;;;;;;4979778;28;20306;-64
2021/12/25 07:40:22;;;;;;;1.10;1.10;;;10.90;99.90;;;;;;4974777;28;20293;-64
2021/12/25 07:42:49;;;;;;;1.07;1.07;;;10.90;99.90;;;;;;4976342;28;20337;-64
2021/12/25 07:45:16;;;;;;;1.30;1.30;;;10.90;99.90;;;;;;4990982;28;20202;-63
2021/12/25 07:47:49;;;;;;;1.10;1.10;;;10.90;99.90;;;;;;4992602;28;20293;-63
2021/12/25 07:50:16;;;;;;;1.30;1.30;;;11.00;99.90;;;;;;4982707;28;20261;-63
2021/12/25 07:52:44;;;;;;;1.20;1.20;;;11.00;99.90;;;;;;4990764;28;20230;-63
2021/12/25 07:55:11;;;;;;;1.10;1.10;;;11.00;99.90;;;;;;4984892;28;20273;-64
2021/12/25 07:57:40;;;;;;;1.00;1.00;;;11.00;99.90;;;;;;4989389;28;20248;-63
2021/12/25 08:00:11;;;;;;;1.10;1.10;;;11.00;99.90;;;;;;4994285;28;20207;-64
2021/12/25 08:02:38;;;;;;;1.47;1.37;;;11.10;99.90;;;;;;4992515;28;20225;-64
2021/12/25 08:05:06;;;;;;;1.20;1.20;;;11.00;99.90;;;;;;4985764;28;20298;-64
2021/12/25 08:07:34;;;;;;;1.20;1.20;;;11.00;99.90;;;;;;4985416;28;20207;-64
2021/12/25 08:10:12;;;;;;;1.50;1.40;;;10.90;99.90;;;;;;4986005;28;20194;-65
2021/12/25 08:12:43;;;;;;;1.30;1.30;;;10.90;99.90;;;;;;4997733;28;20884;-64
2021/12/25 08:15:11;;;;;;;1.30;1.30;;;10.80;99.90;;;;;;5005445;28;20206;-64
2021/12/25 08:17:38;;;;;;;1.30;1.30;;;10.80;99.90;;;;;;5012927;28;20238;-64
2021/12/25 08:20:06;;;;;;;1.30;1.30;;;10.70;99.90;;;;;;5006391;28;20294;-63
2021/12/25 08:22:32;;;;;;;1.20;1.20;;;10.70;99.90;;;;;;4997272;28;20266;-62
2021/12/25 08:24:59;;;;;;;1.40;1.40;;;10.60;99.90;;;;;;4997975;28;20324;-62
2021/12/25 08:27:27;;;;;;;1.83;1.73;;;10.60;99.90;;;;;;4998466;28;20241;-64
2021/12/25 08:29:55;;;;;;;1.50;1.40;;;10.60;99.90;;;;;;4999696;28;20237;-63
2021/12/25 08:32:22;;;;;;;1.53;1.43;;;10.60;99.90;;;;;;5000762;28;20693;-63
2021/12/25 08:34:49;;;;;;;1.30;1.30;;;10.60;99.90;;;;;;5000165;28;20296;-64
2021/12/25 08:37:16;;;;;;;1.20;1.20;;;10.60;99.90;;;;;;4997366;28;20224;-64
2021/12/25 08:39:43;;;;;;;1.20;1.20;;;10.60;99.90;;;;;;4996828;28;20635;-64
2021/12/25 08:42:11;;;;;;;1.20;1.20;;;10.60;99.90;;;;;;4996749;28;20273;-63
2021/12/25 08:44:42;;;;;;;1.20;1.20;;;10.60;99.90;;;;;;4997229;28;20237;-65
2021/12/25 08:47:12;;;;;;;1.17;1.17;;;10.60;99.90;;;;;;5010857;28;20237;-64
2021/12/25 08:49:41;;;;;;;1.23;1.23;;;10.60;99.90;;;;;;5015445;28;20194;-65
2021/12/25 08:52:10;;;;;;;1.20;1.20;;;10.60;99.90;;;;;;5013359;28;20234;-65
2021/12/25 08:54:38;;;;;;;1.30;1.30;;;10.70;99.90;;;;;;5001406;28;20245;-64
2021/12/25 08:57:06;;;;;;;1.50;1.50;;;10.60;99.90;;;;;;5002519;28;20238;-65
2021/12/25 08:59:35;;;;;;;1.47;1.40;;;10.60;99.90;;;;;;5003412;28;20210;-63
2021/12/25 09:02:05;;;;;;;1.40;1.40;;;10.70;99.90;;;;;;5001681;28;20261;-65
2021/12/25 09:04:35;;;;;;;1.33;1.33;;;10.60;99.90;;;;;;4998255;28;20201;-64
2021/12/25 09:07:03;;;;;;;1.40;1.40;;;10.70;99.90;;;;;;4997463;28;20656;-65
2021/12/25 09:09:30;;;;;;;1.33;1.33;;;10.70;99.90;;;;;;4997255;28;20611;-66
2021/12/25 09:11:57;;;;;;;1.30;1.30;;;10.70;99.90;;;;;;4989888;28;20302;-64
2021/12/25 09:14:24;;;;;;;1.23;1.23;;;10.70;99.90;;;;;;4987070;28;20469;-63
2021/12/25 09:16:51;;;;;;;1.27;1.27;;;10.60;99.90;;;;;;4982425;28;20209;-64
2021/12/25 09:19:18;;;;;;;1.20;1.20;;;10.70;99.90;;;;;;4981485;28;20289;-64
2021/12/25 09:21:46;;;;;;;1.43;1.43;;;10.70;99.90;;;;;;4989507;28;20352;-65
2021/12/25 09:24:15;;;;;;;1.67;1.57;;;10.80;99.90;;;;;;4988637;28;20238;-64
2021/12/25 09:26:42;;;;;;;1.40;1.40;;;10.70;99.90;;;;;;4992237;28;20207;-64
2021/12/25 09:29:09;;;;;;;1.30;1.30;;;10.90;99.90;;;;;;4995821;28;20246;-64
2021/12/25 09:31:36;;;;;;;1.60;1.50;;;10.80;99.90;;;;;;4986212;28;20323;-64
2021/12/25 09:34:05;;;;;;;1.50;1.50;;;10.90;99.90;;;;;;4989484;28;20292;-64
2021/12/25 09:36:36;;;;;;;1.73;1.63;;;10.80;99.90;;;;;;4984565;28;20230;-64
2021/12/25 09:39:07;;;;;;;1.50;1.50;;;10.80;99.90;;;;;;4978809;28;20202;-65
2021/12/25 09:41:34;;;;;;;1.77;1.67;;;10.70;99.90;;;;;;4988191;28;20231;-62
2021/12/25 09:44:02;;;;;;;1.80;1.70;;;10.70;99.90;;;;;;4985993;28;20272;-64
2021/12/25 09:46:29;;;;;;;1.70;1.60;;;10.70;99.90;;;;;;4986221;28;20718;-65
2021/12/25 09:48:56;;;;;;;1.67;1.57;;;10.80;99.90;;;;;;4995073;28;20649;-63
2021/12/25 09:51:23;;;;;;;1.90;1.80;;;10.80;99.90;;;;;;4993441;28;20317;-66
2021/12/25 09:53:57;;;;;;;1.80;1.70;;;10.80;99.90;;;;;;4994090;28;20217;-64
2021/12/25 09:56:26;;;;;;;1.53;1.53;;;10.90;99.90;;;;;;4995974;28;20206;-63
2021/12/25 09:58:53;;;;;;;1.30;1.30;;;10.80;99.90;;;;;;4983109;28;20632;-65
2021/12/25 10:01:34;;;;;;;1.40;1.40;;;10.90;99.90;;;;;;4982574;28;20383;-63
2021/12/25 10:04:01;;;;;;;1.50;1.50;;;10.90;99.90;;;;;;4980887;28;20204;-63
2021/12/25 10:06:30;;;;;;;1.20;1.20;;;10.80;99.90;;;;;;4980163;28;20293;-64
2021/12/25 10:08:57;;;;;;;1.40;1.40;;;10.90;99.90;;;;;;4980880;28;20675;-64
2021/12/25 10:11:26;;;;;;;1.30;1.30;;;10.80;99.90;;;;;;4977973;28;20258;-64
2021/12/25 10:13:55;;;;;;;1.40;1.40;;;10.90;99.90;;;;;;4979392;28;20250;-65
2021/12/25 10:16:24;;;;;;;1.70;1.60;;;10.90;99.90;;;;;;4980908;28;20278;-65
2021/12/25 10:18:52;;;;;;;1.40;1.40;;;10.90;99.90;;;;;;4981385;28;20210;-63
2021/12/25 10:21:22;;;;;;;1.40;1.40;;;10.90;99.90;;;;;;4982380;28;20608;-63
2021/12/25 10:24:05;;;;;;;1.20;1.20;;;10.90;99.90;;;;;;4982226;28;20632;-65
2021/12/25 10:26:35;;;;;;;1.17;1.17;;;10.90;99.90;;;;;;4975724;28;20214;-64
2021/12/25 10:29:17;;;;;;;1.20;1.20;;;11.00;99.90;;;;;;4977156;28;20235;-65
2021/12/25 10:31:44;;;;;;;1.27;1.27;;;11.00;99.90;;;;;;4977632;28;20226;-65
2021/12/25 10:34:15;;;;;;;1.27;1.27;;;11.10;99.90;;;;;;4976305;28;20307;-66
2021/12/25 10:36:42;;;;;;;1.10;1.10;;;11.10;99.90;;;;;;4983592;28;20210;-64
2021/12/25 10:39:12;;;;;;;1.20;1.20;;;11.20;99.90;;;;;;4994339;28;20253;-63
2021/12/25 10:41:52;;;;;;;1.20;1.20;;;11.20;99.90;;;;;;4977450;28;20308;-66
2021/12/25 10:44:21;;;;;;;1.40;1.40;;;11.30;99.90;;;;;;4977583;28;20282;-63
2021/12/25 10:46:50;;;;;;;1.20;1.20;;;11.30;99.90;;;;;;4977181;28;20230;-63
2021/12/25 10:49:18;;;;;;;1.27;1.27;;;11.20;99.90;;;;;;4976928;28;20253;-65
2021/12/25 10:51:45;;;;;;;1.03;1.03;;;11.40;99.90;;;;;;4985169;28;20222;-64
2021/12/25 10:54:15;;;;;;;1.10;1.10;;;11.50;99.90;;;;;;4988828;28;20659;-66
2021/12/25 10:56:44;;;;;;;1.30;1.30;;;11.50;99.90;;;;;;4994020;28;20206;-62
2021/12/25 10:59:14;;;;;;;1.13;1.13;;;11.60;99.90;;;;;;4988567;28;20210;-65
2021/12/25 11:01:46;;;;;;;1.13;1.13;;;11.60;99.90;;;;;;4982190;28;20250;-66
2021/12/25 11:04:29;;;;;;;1.10;1.10;;;11.70;99.90;;;;;;4977482;28;20213;-65
2021/12/25 11:06:56;;;;;;;1.23;1.23;;;11.70;99.90;;;;;;4974221;28;20318;-66
2021/12/25 11:09:23;;;;;;;1.10;1.10;;;11.80;99.90;;;;;;4976729;28;20222;-64
2021/12/25 11:12:16;;;;;;;1.20;1.20;;;11.80;99.90;;;;;;4975286;28;20222;-64
2021/12/25 11:14:44;;;;;;;1.30;1.30;;;11.90;99.90;;;;;;4974954;28;20214;-65
2021/12/25 11:17:25;;;;;;;1.20;1.20;;;11.90;99.90;;;;;;4977369;28;20811;-65
2021/12/25 11:19:58;;;;;;;1.30;1.30;;;11.90;99.90;;;;;;4982044;28;20237;-62
2021/12/25 11:22:26;;;;;;;1.10;1.10;;;12.00;99.90;;;;;;4978557;28;20253;-65
2021/12/25 11:24:57;;;;;;;1.20;1.20;;;12.00;99.90;;;;;;4978905;28;20194;-62
2021/12/25 11:27:25;;;;;;;1.13;1.13;;;12.10;99.90;;;;;;4978623;28;20222;-64
2021/12/25 11:29:53;;;;;;;1.10;1.10;;;12.10;99.90;;;;;;4980699;28;20226;-65
2021/12/25 11:32:21;;;;;;;1.20;1.20;;;12.20;99.90;;;;;;5000544;28;20209;-65
2021/12/25 11:34:49;;;;;;;1.10;1.10;;;12.20;99.90;;;;;;4996241;28;20359;-65
2021/12/25 11:37:17;;;;;;;1.10;1.10;;;12.20;99.90;;;;;;4991436;28;20216;-64
2021/12/25 11:39:44;;;;;;;1.07;1.07;;;12.20;99.90;;;;;;4990600;28;20216;-64
2021/12/25 11:42:12;;;;;;;1.10;1.10;;;12.20;99.90;;;;;;4992155;28;20316;-64
2021/12/25 11:44:45;;;;;;;1.10;1.10;;;12.30;99.90;;;;;;4991425;28;20220;-64
2021/12/25 11:47:33;;;;;;;1.07;1.07;;;12.30;99.90;;;;;;4991585;28;20202;-65
2021/12/25 11:50:05;;;;;;;1.00;1.00;;;12.30;99.90;;;;;;4993257;28;20197;-63
2021/12/25 11:52:37;;;;;;;1.10;1.10;;;12.30;99.90;;;;;;4993845;28;20758;-63
2021/12/25 11:55:36;;;;;;;1.10;1.10;;;12.30;99.90;;;;;;4994390;28;20689;-62
2021/12/25 11:58:17;;;;;;;1.00;1.00;;;12.30;99.90;;;;;;4993152;28;20265;-64
2021/12/25 12:00:48;;;;;;;1.10;1.10;;;12.30;99.90;;;;;;4994056;28;20217;-64
2021/12/25 12:03:37;;;;;;;1.00;1.00;;;12.30;99.90;;;;;;4986868;28;20254;-63
2021/12/25 12:06:04;;;;;;;1.10;1.10;;;12.30;99.90;;;;;;4978654;28;20194;-62
2021/12/25 12:09:01;;;;;;;1.20;1.20;;;12.30;99.90;;;;;;4974917;28;20210;-63
2021/12/25 12:11:29;;;;;;;1.13;1.13;;;12.40;99.90;;;;;;4986103;28;20327;-64
2021/12/25 12:14:16;;;;;;;1.20;1.20;;;12.50;99.90;;;;;;4988744;28;20228;-62
2021/12/25 12:16:46;;;;;;;1.20;1.20;;;12.50;99.90;;;;;;4990398;28;20633;-63
2021/12/25 12:19:41;;;;;;;1.10;1.10;;;12.50;99.90;;;;;;4990022;28;20257;-64
2021/12/25 12:22:47;;;;;;;1.20;1.20;;;12.60;99.90;;;;;;5027148;23;20310;-64
2021/12/25 12:25:25;;;;;;;1.40;1.30;;;12.60;99.90;;;;;;5010655;28;20200;-65
2021/12/25 12:27:55;;;;;;;1.23;1.23;;;12.60;99.90;;;;;;5009776;28;20275;-66
2021/12/25 12:30:49;;;;;;;1.30;1.30;;;12.60;99.90;;;;;;5020578;28;20232;-67
2021/12/25 12:33:35;;;;;;;1.03;1.03;;;12.60;99.90;;;;;;5031808;28;20225;-66
2021/12/25 12:36:04;;;;;;;1.00;1.00;;;12.60;99.90;;;;;;5031983;28;20311;-66
2021/12/25 12:38:39;;;;;;;1.00;1.00;;;12.70;99.90;;;;;;5031379;28;20710;-65
2021/12/25 12:41:19;;;;;;;1.00;1.00;;;12.70;99.90;;;;;;5031300;28;20212;-65
2021/12/25 12:44:05;;;;;;;1.07;1.07;;;12.70;99.90;;;;;;5030713;28;20185;-67
2021/12/25 12:47:14;;;;;;;1.20;1.20;;;12.70;99.90;;;;;;5032672;28;20208;-65
2021/12/25 12:49:59;;;;;;;1.40;1.30;;;12.70;99.90;;;;;;5032316;28;20292;-65
2021/12/25 12:52:31;;;;;;;1.30;1.30;;;12.70;99.90;;;;;;5031745;28;20751;-66
2021/12/25 12:55:05;;;;;;;1.20;1.20;;;12.70;99.90;;;;;;5028644;28;20706;-66
2021/12/25 12:57:34;;;;;;;1.17;1.17;;;12.70;99.90;;;;;;5025919;28;20300;-69
2021/12/25 13:00:09;;;;;;;1.10;1.10;;;12.70;99.90;;;;;;5031870;28;20287;-67
2021/12/25 13:02:43;;;;;;;1.20;1.20;;;12.70;99.90;;;;;;5029801;28;20232;-68
2021/12/25 13:05:12;;;;;;;1.10;1.10;;;12.70;99.90;;;;;;5028518;28;20203;-67
2021/12/25 13:07:42;;;;;;;1.30;1.30;;;12.70;99.90;;;;;;5026003;28;20635;-68
2021/12/25 13:10:18;;;;;;;1.20;1.20;;;12.60;99.90;;;;;;5021111;28;20194;-68
2021/12/25 13:12:49;;;;;;;1.30;1.30;;;12.40;99.90;;;;;;5025147;28;20227;-67
2021/12/25 13:15:20;;;;;;;1.20;1.20;;;12.40;99.90;;;;;;5029494;28;20582;-67
2021/12/25 13:17:53;;;;;;;1.50;1.50;;;12.30;99.90;;;;;;5025188;28;20291;-68
2021/12/25 13:20:34;;;;;;;1.47;1.47;;;12.30;99.90;;;;;;5026006;28;20207;-67
2021/12/25 13:23:04;;;;;;;1.83;1.73;;;12.20;99.90;;;;;;5030309;28;20240;-68
2021/12/25 13:25:32;;;;;;;1.40;1.40;;;12.30;99.90;;;;;;5033743;28;20201;-66
2021/12/25 13:28:00;;;;;;;1.90;1.80;;;12.00;99.90;;;;;;5030655;28;20204;-68
2021/12/25 13:30:30;;;;;;;1.90;1.80;;;12.00;99.90;;;;;;5027781;28;20582;-69
2021/12/25 13:33:07;;;;;;;1.90;1.80;;;12.00;99.90;;;;;;5033419;28;20707;-68
2021/12/25 13:35:36;;;;;;;1.90;1.80;;;12.00;99.90;;;;;;5033576;28;20251;-67
2021/12/25 13:38:04;;;;;;;1.67;1.57;;;11.90;99.90;;;;;;5032862;28;20251;-67
2021/12/25 13:40:32;;;;;;;1.80;1.70;;;11.90;99.90;;;;;;5033760;28;20222;-68
2021/12/25 13:43:05;;;;;;;1.50;1.50;;;11.80;99.90;;;;;;5032901;28;20233;-67
2021/12/25 13:45:32;;;;;;;1.70;1.60;;;11.90;99.90;;;;;;5033201;28;20189;-67
2021/12/25 13:48:00;;;;;;;1.50;1.50;;;11.90;99.90;;;;;;5026576;28;20209;-67